Time;durP1;ratioP1;P1;durP2;ratioP2;P2;SDS_P1;SDS_P2;PMS_P1;PMS_P2;Temp;Humidity;BMP_temperature;BMP_pressure;BME280_temperature;BME280_humidity;BME280_pressure;Samples;Min_cycle;Max_cycle;Signal;HPM_P1;HPM_P2
2022/06/14 00:01:21;;;;;;;0.47;0.47;;;13.50;99.90;;;;;;4303802;33;20554;-65
2022/06/14 00:03:06;;;;;;;0.40;0.40;;;13.50;99.90;;;;;;4311845;33;20460;-65
2022/06/14 00:05:32;;;;;;;0.55;0.55;;;13.40;99.90;;;;;;4302667;33;20091;-65
2022/06/14 00:07:57;;;;;;;0.20;0.20;;;13.40;99.90;;;;;;4305706;33;20056;-65
2022/06/14 00:10:23;;;;;;;0.40;0.40;;;13.30;99.90;;;;;;4302585;33;20063;-65
2022/06/14 00:12:49;;;;;;;0.20;0.20;;;13.20;99.90;;;;;;4291841;33;20133;-65
2022/06/14 00:15:15;;;;;;;0.10;0.10;;;13.20;99.90;;;;;;4304919;33;20135;-65
2022/06/14 00:17:40;;;;;;;0.20;0.20;;;13.10;99.90;;;;;;4304596;33;20189;-65
2022/06/14 00:20:06;;;;;;;0.40;0.40;;;13.10;99.90;;;;;;4305509;33;20246;-65
2022/06/14 00:22:34;;;;;;;0.30;0.30;;;13.20;99.90;;;;;;4286893;33;20104;-65
2022/06/14 00:24:59;;;;;;;0.20;0.20;;;13.30;99.90;;;;;;4304160;33;20577;-65
2022/06/14 00:27:25;;;;;;;0.30;0.30;;;13.20;99.90;;;;;;4304596;33;20087;-65
2022/06/14 00:29:50;;;;;;;0.28;0.28;;;13.20;99.90;;;;;;4302609;33;20460;-65
2022/06/14 00:32:16;;;;;;;0.20;0.20;;;13.20;99.90;;;;;;4306486;33;20544;-65
2022/06/14 00:34:41;;;;;;;5.85;0.55;;;13.10;99.90;;;;;;4307279;33;20551;-65
2022/06/14 00:37:14;;;;;;;0.40;0.40;;;13.20;99.90;;;;;;4305800;33;20072;-65
2022/06/14 00:39:39;;;;;;;1.10;0.65;;;13.20;99.90;;;;;;4288996;33;20563;-64
2022/06/14 00:42:05;;;;;;;0.30;0.30;;;13.20;99.90;;;;;;4304279;33;20079;-65
2022/06/14 00:44:30;;;;;;;0.40;0.40;;;13.20;99.90;;;;;;4306447;33;20147;-65
2022/06/14 00:47:00;;;;;;;0.40;0.40;;;13.20;99.90;;;;;;4308454;33;20061;-65
2022/06/14 00:49:31;;;;;;;0.30;0.30;;;13.10;99.90;;;;;;4307590;33;20111;-65
2022/06/14 00:52:00;;;;;;;;;;;13.10;99.90;;;;;;4287021;33;20063;-65
2022/06/14 00:54:34;;;;;;;0.40;0.40;;;13.00;99.90;;;;;;4302486;33;20002;-65
2022/06/14 00:57:05;;;;;;;0.20;0.20;;;13.00;99.90;;;;;;4308439;33;20056;-65
2022/06/14 00:59:44;;;;;;;0.20;0.20;;;12.80;99.90;;;;;;4306442;33;20577;-65
2022/06/14 01:02:18;;;;;;;0.52;0.52;;;12.90;99.90;;;;;;4306162;33;20096;-64
2022/06/14 01:04:45;;;;;;;0.25;0.25;;;12.70;99.90;;;;;;4304887;33;20517;-64
2022/06/14 01:07:20;;;;;;;0.20;0.20;;;12.70;99.90;;;;;;4307678;33;20116;-64
2022/06/14 01:09:50;;;;;;;0.20;0.20;;;12.80;99.90;;;;;;4306946;33;20061;-66
2022/06/14 01:12:19;;;;;;;0.20;0.20;;;12.80;99.90;;;;;;4306494;33;20131;-65
2022/06/14 01:14:55;;;;;;;0.30;0.30;;;12.80;99.90;;;;;;4305432;33;20441;-65
2022/06/14 01:17:21;;;;;;;0.52;0.50;;;12.80;99.90;;;;;;4305616;33;20124;-65
2022/06/14 01:19:47;;;;;;;0.28;0.28;;;12.60;99.90;;;;;;4307753;33;20083;-64
2022/06/14 01:22:15;;;;;;;0.30;0.30;;;12.40;99.90;;;;;;4288364;33;20083;-64
2022/06/14 01:24:42;;;;;;;0.20;0.20;;;12.40;99.90;;;;;;4306896;33;20394;-64
2022/06/14 01:27:11;;;;;;;0.20;0.20;;;12.50;99.90;;;;;;4307355;33;20072;-64
2022/06/14 01:29:40;;;;;;;0.30;0.30;;;12.50;99.90;;;;;;4304813;33;20084;-64
2022/06/14 01:32:09;;;;;;;0.30;0.30;;;12.50;99.90;;;;;;4304579;33;86325;-64
2022/06/14 01:34:39;;;;;;;2.47;1.50;;;12.40;99.90;;;;;;4306164;33;20119;-64
2022/06/14 01:37:04;;;;;;;0.30;0.30;;;12.40;99.90;;;;;;4304855;33;20083;-64
2022/06/14 01:39:30;;;;;;;0.30;0.30;;;12.40;99.90;;;;;;4303692;33;20088;-65
2022/06/14 01:42:22;;;;;;;0.20;0.20;;;12.40;99.90;;;;;;4305162;33;20137;-65
2022/06/14 01:45:00;;;;;;;0.28;0.28;;;12.40;99.90;;;;;;4306162;33;20072;-64
2022/06/14 01:47:54;;;;;;;0.30;0.30;;;12.50;99.90;;;;;;4303677;33;20473;-64
2022/06/14 01:51:59;;;;;;;8.20;2.05;;;12.50;99.90;;;;;;4302905;33;20100;-64
2022/06/14 01:54:06;;;;;;;0.40;0.40;;;12.40;99.90;;;;;;4294778;33;20080;-64
2022/06/14 01:56:53;;;;;;;0.55;0.40;;;12.40;99.90;;;;;;4303480;33;20560;-64
2022/06/14 01:59:42;;;;;;;0.30;0.30;;;12.50;99.90;;;;;;4302141;33;20087;-64
2022/06/14 02:02:15;;;;;;;0.30;0.30;;;12.50;99.90;;;;;;4303262;33;20093;-65
2022/06/14 02:04:51;;;;;;;0.40;0.40;;;12.30;99.90;;;;;;4303805;33;20083;-65
2022/06/14 02:07:35;;;;;;;1.12;0.55;;;12.40;99.90;;;;;;4304967;33;20832;-65
2022/06/14 02:10:10;;;;;;;0.20;0.20;;;12.40;99.90;;;;;;4304069;33;20072;-65
2022/06/14 02:12:44;;;;;;;0.30;0.30;;;12.30;99.90;;;;;;4304409;33;20129;-65
2022/06/14 02:15:22;;;;;;;0.25;0.25;;;12.10;99.90;;;;;;4303975;33;20107;-65
2022/06/14 02:18:02;;;;;;;2.50;0.62;;;12.10;99.90;;;;;;4306871;33;20091;-64
2022/06/14 02:20:42;;;;;;;0.37;0.37;;;12.20;99.90;;;;;;4302530;33;20077;-64
2022/06/14 02:23:09;;;;;;;0.57;0.57;;;12.20;99.90;;;;;;4289475;33;20084;-64
2022/06/14 02:25:47;;;;;;;0.40;0.40;;;12.20;99.90;;;;;;4304111;33;20143;-64
2022/06/14 02:28:19;;;;;;;0.40;0.40;;;12.30;99.90;;;;;;4304340;33;20500;-64
2022/06/14 02:30:53;;;;;;;0.57;0.57;;;12.30;99.90;;;;;;4302340;33;20556;-64
2022/06/14 02:33:42;;;;;;;0.30;0.30;;;12.30;99.90;;;;;;4304006;33;20111;-64
2022/06/14 02:36:17;;;;;;;0.20;0.20;;;12.20;99.90;;;;;;4303731;33;20223;-64
2022/06/14 02:38:51;;;;;;;0.20;0.20;;;12.20;99.90;;;;;;4304089;33;20119;-64
2022/06/14 02:41:28;;;;;;;0.30;0.30;;;12.10;99.90;;;;;;4303809;33;20568;-64
2022/06/14 02:44:03;;;;;;;0.30;0.30;;;12.20;99.90;;;;;;4302535;33;20149;-64
2022/06/14 02:46:38;;;;;;;0.37;0.35;;;12.20;99.90;;;;;;4305110;33;20594;-64
2022/06/14 02:49:28;;;;;;;0.60;0.60;;;12.20;99.90;;;;;;4291500;33;20088;-64
2022/06/14 02:52:01;;;;;;;0.30;0.30;;;12.30;99.90;;;;;;4275284;33;20562;-64
2022/06/14 02:54:33;;;;;;;0.30;0.30;;;12.30;99.90;;;;;;4304164;33;20120;-64
2022/06/14 02:57:12;;;;;;;0.40;0.40;;;12.20;99.90;;;;;;4305298;33;20524;-64
2022/06/14 02:59:45;;;;;;;0.30;0.30;;;12.10;99.90;;;;;;4304180;33;20540;-64
2022/06/14 03:02:19;;;;;;;0.75;0.75;;;12.20;99.90;;;;;;4305561;33;20087;-64
2022/06/14 03:04:56;;;;;;;0.40;0.40;;;12.10;99.90;;;;;;4304327;33;20087;-64
2022/06/14 03:07:28;;;;;;;0.20;0.20;;;12.20;99.90;;;;;;4305461;33;20064;-64
2022/06/14 03:09:54;;;;;;;0.22;0.22;;;12.20;99.90;;;;;;4304470;33;20080;-64
2022/06/14 03:12:45;;;;;;;2.10;1.15;;;12.20;99.90;;;;;;4303613;33;20429;-64
2022/06/14 03:15:36;;;;;;;1.67;0.95;;;12.20;99.90;;;;;;4307121;33;20072;-64
2022/06/14 03:18:27;;;;;;;0.22;0.22;;;12.20;99.90;;;;;;4305307;33;20092;-64
2022/06/14 03:21:12;;;;;;;0.40;0.40;;;12.20;99.90;;;;;;4293300;33;20091;-64
2022/06/14 03:23:46;;;;;;;0.30;0.30;;;12.30;99.90;;;;;;4285721;33;20540;-63
2022/06/14 03:26:20;;;;;;;0.77;0.55;;;12.40;99.90;;;;;;4304166;33;20072;-64
2022/06/14 03:28:52;;;;;;;0.25;0.25;;;12.40;99.90;;;;;;4303797;33;20077;-64
2022/06/14 03:31:42;;;;;;;9.30;1.23;;;12.40;99.90;;;;;;4304227;33;20128;-64
2022/06/14 03:34:14;;;;;;;1.15;0.98;;;12.30;99.90;;;;;;4303851;33;20079;-64
2022/06/14 03:36:41;;;;;;;0.37;0.37;;;12.30;99.90;;;;;;4305703;33;20481;-64
2022/06/14 03:39:11;;;;;;;0.20;0.20;;;12.40;99.90;;;;;;4304262;33;21457;-64
2022/06/14 03:41:40;;;;;;;0.30;0.30;;;12.40;99.90;;;;;;4292078;33;20072;-64
2022/06/14 03:44:06;;;;;;;0.32;0.32;;;12.40;99.90;;;;;;4304349;33;20150;-64
2022/06/14 03:46:38;;;;;;;0.40;0.40;;;12.50;99.90;;;;;;4301589;33;20109;-64
2022/06/14 03:49:09;;;;;;;0.77;0.45;;;12.50;99.90;;;;;;4299620;33;20119;-64
2022/06/14 03:52:02;;;;;;;0.28;0.28;;;12.60;99.90;;;;;;4285103;33;20067;-64
2022/06/14 03:54:49;;;;;;;1.95;0.82;;;12.50;99.90;;;;;;4303434;33;20466;-65
2022/06/14 03:57:24;;;;;;;0.22;0.22;;;12.50;99.90;;;;;;4301856;33;20593;-64
2022/06/14 04:00:30;;;;;;;0.30;0.30;;;12.50;99.90;;;;;;4304495;33;20084;-64
2022/06/14 04:03:32;;;;;;;0.40;0.40;;;12.40;99.90;;;;;;4291981;33;20864;-64
2022/06/14 04:06:22;;;;;;;0.20;0.20;;;12.40;99.90;;;;;;4302696;33;20080;-65
2022/06/14 04:08:58;;;;;;;0.30;0.30;;;12.40;99.90;;;;;;4302672;33;20131;-65
2022/06/14 04:11:36;;;;;;;0.40;0.40;;;12.40;99.90;;;;;;4304567;33;20072;-65
2022/06/14 04:14:13;;;;;;;0.20;0.20;;;12.60;99.90;;;;;;4301279;33;20075;-65
2022/06/14 04:16:55;;;;;;;0.22;0.22;;;12.50;99.90;;;;;;4304608;33;20501;-65
2022/06/14 04:19:47;;;;;;;1.08;0.57;;;12.60;99.90;;;;;;4307145;33;20075;-65
2022/06/14 04:22:20;;;;;;;11.12;0.52;;;12.60;99.90;;;;;;4254244;33;20067;-64
2022/06/14 04:24:54;;;;;;;4.28;0.82;;;12.50;99.90;;;;;;4252732;33;20143;-64
2022/06/14 04:28:00;;;;;;;0.30;0.30;;;12.50;99.90;;;;;;4270910;33;20621;-64
2022/06/14 04:30:48;;;;;;;0.20;0.20;;;12.60;99.90;;;;;;4267575;33;20076;-65
2022/06/14 04:33:29;;;;;;;0.85;0.52;;;12.60;99.90;;;;;;4303382;33;20084;-64
2022/06/14 04:36:01;;;;;;;0.32;0.30;;;12.60;99.90;;;;;;4303750;33;20100;-64
2022/06/14 04:38:34;;;;;;;0.30;0.30;;;12.60;99.90;;;;;;4303043;33;20064;-64
2022/06/14 04:41:07;;;;;;;0.40;0.40;;;12.70;99.90;;;;;;4304764;33;20500;-64
2022/06/14 04:43:43;;;;;;;0.25;0.25;;;12.80;99.90;;;;;;4301927;33;20084;-65
2022/06/14 04:46:14;;;;;;;0.43;0.43;;;12.80;99.90;;;;;;4302716;33;20079;-65
2022/06/14 04:49:02;;;;;;;0.30;0.30;;;12.90;99.90;;;;;;4299544;33;20075;-65
2022/06/14 04:51:39;;;;;;;0.22;0.22;;;12.80;99.90;;;;;;4282519;33;20077;-64
2022/06/14 04:54:35;;;;;;;0.75;0.75;;;12.90;99.90;;;;;;4271640;33;20563;-64
2022/06/14 04:57:14;;;;;;;0.30;0.30;;;12.90;99.90;;;;;;4305118;33;20119;-64
2022/06/14 04:59:47;;;;;;;0.40;0.40;;;12.90;99.90;;;;;;4300029;33;20128;-64
2022/06/14 05:02:21;;;;;;;0.20;0.20;;;13.00;99.90;;;;;;4285947;33;20068;-65
2022/06/14 05:04:52;;;;;;;0.30;0.30;;;13.10;99.90;;;;;;4263181;33;20088;-65
2022/06/14 05:07:21;;;;;;;10.70;0.65;;;13.20;99.90;;;;;;4259285;33;20064;-65
2022/06/14 05:09:56;;;;;;;0.50;0.50;;;13.20;99.90;;;;;;4257610;33;20079;-65
2022/06/14 05:12:28;;;;;;;0.20;0.20;;;13.30;99.90;;;;;;4283274;33;20292;-65
2022/06/14 05:15:01;;;;;;;0.75;0.75;;;13.30;99.90;;;;;;4282142;33;20096;-65
2022/06/14 05:17:32;;;;;;;2.42;0.98;;;13.30;99.90;;;;;;4274433;33;20611;-65
2022/06/14 05:20:07;;;;;;;0.30;0.30;;;13.30;99.90;;;;;;4202485;33;20396;-65
2022/06/14 05:22:57;;;;;;;0.50;0.50;;;13.40;99.90;;;;;;4217453;33;20072;-65
2022/06/14 05:25:29;;;;;;;0.20;0.20;;;13.30;99.90;;;;;;4214906;33;20588;-65
2022/06/14 05:28:02;;;;;;;2.72;0.57;;;13.30;99.90;;;;;;4274072;33;20370;-65
2022/06/14 05:30:40;;;;;;;0.85;0.80;;;13.30;99.90;;;;;;4220244;33;20089;-65
2022/06/14 05:33:16;;;;;;;9.43;0.80;;;13.40;99.90;;;;;;4226303;33;20241;-65
2022/06/14 05:35:53;;;;;;;0.75;0.57;;;13.40;99.90;;;;;;4227895;33;20410;-65
2022/06/14 05:38:57;;;;;;;1.12;0.68;;;13.40;99.90;;;;;;4261675;33;20236;-65
2022/06/14 05:41:41;;;;;;;0.55;0.43;;;13.50;99.90;;;;;;4276499;33;20450;-65
2022/06/14 05:44:33;;;;;;;1.60;0.85;;;13.60;99.90;;;;;;4279606;33;20108;-65
2022/06/14 05:47:14;;;;;;;0.37;0.37;;;13.60;99.90;;;;;;4279785;33;21652;-65
2022/06/14 05:49:48;;;;;;;0.40;0.40;;;13.60;99.90;;;;;;4264986;33;20125;-65
2022/06/14 05:52:25;;;;;;;0.50;0.50;;;13.80;99.90;;;;;;4278173;33;21136;-65
2022/06/14 05:55:28;;;;;;;2.62;0.50;;;13.90;99.90;;;;;;4280336;33;21925;-65
2022/06/14 05:58:00;;;;;;;0.43;0.43;;;13.80;99.90;;;;;;4254203;33;20099;-65
2022/06/14 06:00:35;;;;;;;0.93;0.80;;;13.80;99.90;;;;;;4247288;33;20294;-66
2022/06/14 06:03:31;;;;;;;0.60;0.60;;;13.80;99.90;;;;;;4235716;33;20132;-66
2022/06/14 06:06:06;;;;;;;1.45;0.85;;;13.90;99.90;;;;;;4266937;33;20182;-66
2022/06/14 06:08:44;;;;;;;0.28;0.28;;;14.00;99.90;;;;;;4262101;33;20505;-66
2022/06/14 06:11:25;;;;;;;4.03;1.08;;;14.10;99.90;;;;;;4269837;33;20084;-66
2022/06/14 06:13:57;;;;;;;0.20;0.20;;;14.10;99.90;;;;;;4267465;33;20088;-66
2022/06/14 06:16:35;;;;;;;0.30;0.30;;;14.10;99.90;;;;;;4276584;33;20087;-67
2022/06/14 06:19:24;;;;;;;1.25;0.55;;;14.20;99.90;;;;;;4266262;33;20765;-66
2022/06/14 06:22:04;;;;;;;0.40;0.40;;;14.20;99.90;;;;;;4268920;33;21007;-67
2022/06/14 06:24:47;;;;;;;0.47;0.47;;;14.20;99.90;;;;;;4268747;33;20084;-67
2022/06/14 06:27:13;;;;;;;1.95;0.93;;;14.30;99.90;;;;;;4264476;33;20124;-67
2022/06/14 06:30:00;;;;;;;1.52;0.50;;;14.40;99.90;;;;;;4258409;33;20483;-67
2022/06/14 06:32:28;;;;;;;12.70;0.40;;;14.40;99.90;;;;;;4261283;33;20326;-67
2022/06/14 06:34:54;;;;;;;0.30;0.30;;;14.30;99.90;;;;;;4261411;33;21926;-67
2022/06/14 06:37:31;;;;;;;0.20;0.20;;;14.40;99.90;;;;;;4276041;33;20718;-67
2022/06/14 06:40:03;;;;;;;0.30;0.30;;;14.50;99.90;;;;;;4264488;33;20130;-67
2022/06/14 06:42:43;;;;;;;0.37;0.37;;;14.60;99.90;;;;;;4282370;33;20175;-67
2022/06/14 06:45:17;;;;;;;0.30;0.30;;;14.80;99.90;;;;;;4276218;33;20100;-67
2022/06/14 06:47:52;;;;;;;0.20;0.20;;;14.90;99.90;;;;;;4273370;33;20081;-67
2022/06/14 06:50:41;;;;;;;0.30;0.30;;;14.90;99.90;;;;;;4267799;33;20104;-67
2022/06/14 06:53:12;;;;;;;0.35;0.28;;;15.00;99.90;;;;;;4270207;33;20172;-68
2022/06/14 06:55:50;;;;;;;1.67;0.73;;;15.10;99.90;;;;;;4274905;33;20608;-67
2022/06/14 06:58:23;;;;;;;0.30;0.30;;;14.90;99.90;;;;;;4272755;33;21062;-67
2022/06/14 07:00:52;;;;;;;0.30;0.30;;;14.90;99.90;;;;;;4267594;33;20840;-65
2022/06/14 07:03:26;;;;;;;0.20;0.20;;;15.10;99.90;;;;;;4259809;33;20087;-65
2022/06/14 07:05:57;;;;;;;0.37;0.37;;;15.10;99.90;;;;;;4272345;33;20626;-65
2022/06/14 07:08:41;;;;;;;1.00;0.95;;;15.10;99.90;;;;;;4271079;33;20160;-66
2022/06/14 07:11:13;;;;;;;0.37;0.37;;;15.20;99.90;;;;;;4273155;33;20139;-65
2022/06/14 07:14:04;;;;;;;0.70;0.70;;;15.10;99.90;;;;;;4260531;33;20157;-66
2022/06/14 07:16:35;;;;;;;0.70;0.50;;;15.00;99.90;;;;;;4269265;33;20099;-65
2022/06/14 07:19:29;;;;;;;1.35;1.25;;;15.00;99.90;;;;;;4252824;33;20667;-66
2022/06/14 07:22:03;;;;;;;1.20;0.75;;;15.00;99.90;;;;;;4273477;33;20636;-66
2022/06/14 07:24:36;;;;;;;0.40;0.40;;;15.10;99.90;;;;;;4277011;33;20978;-65
2022/06/14 07:27:07;;;;;;;0.93;0.70;;;15.10;99.90;;;;;;4280023;33;20421;-65
2022/06/14 07:29:42;;;;;;;0.77;0.77;;;15.20;99.90;;;;;;4256036;33;20393;-66
2022/06/14 07:32:27;;;;;;;0.57;0.57;;;15.40;99.90;;;;;;4258107;33;20292;-65
2022/06/14 07:34:54;;;;;;;0.50;0.45;;;15.50;99.90;;;;;;4242951;33;20388;-65
2022/06/14 07:37:31;;;;;;;0.73;0.73;;;15.60;99.90;;;;;;4251168;33;20145;-65
2022/06/14 07:40:11;;;;;;;0.37;0.37;;;15.60;99.90;;;;;;4252250;33;20876;-65
2022/06/14 07:42:50;;;;;;;0.50;0.50;;;15.60;99.90;;;;;;4260911;33;20951;-65
2022/06/14 07:45:20;;;;;;;12.18;1.02;;;15.80;99.90;;;;;;4260978;33;20288;-65
2022/06/14 07:47:53;;;;;;;0.43;0.43;;;16.00;99.90;;;;;;4251671;33;20694;-65
2022/06/14 07:50:43;;;;;;;1.65;0.85;;;16.30;99.90;;;;;;4255780;33;20095;-65
2022/06/14 07:53:20;;;;;;;1.65;0.77;;;16.40;99.90;;;;;;4257291;33;21581;-64
2022/06/14 07:55:53;;;;;;;0.30;0.30;;;16.40;99.90;;;;;;4263783;33;20171;-64
2022/06/14 07:58:30;;;;;;;0.55;0.55;;;16.40;99.90;;;;;;4257929;33;20100;-64
2022/06/14 08:01:09;;;;;;;0.65;0.65;;;16.40;99.90;;;;;;4253812;33;20096;-64
2022/06/14 08:03:51;;;;;;;0.25;0.25;;;16.60;99.90;;;;;;4246062;33;20373;-64
2022/06/14 08:06:24;;;;;;;0.20;0.20;;;16.80;99.90;;;;;;4265294;33;20088;-64
2022/06/14 08:08:57;;;;;;;0.30;0.30;;;16.80;99.90;;;;;;4264552;33;20088;-65
2022/06/14 08:11:33;;;;;;;0.30;0.30;;;16.80;99.90;;;;;;4270085;33;20100;-64
2022/06/14 08:14:06;;;;;;;1.30;0.95;;;16.90;99.90;;;;;;4272729;33;20112;-64
2022/06/14 08:16:33;;;;;;;1.70;0.60;;;16.90;99.90;;;;;;4266740;33;20153;-64
2022/06/14 08:19:07;;;;;;;0.30;0.30;;;17.00;99.90;;;;;;4259610;33;21271;-64
2022/06/14 08:21:41;;;;;;;2.90;0.73;;;17.10;99.90;;;;;;4261573;33;20109;-64
2022/06/14 08:24:18;;;;;;;9.43;0.75;;;17.10;99.90;;;;;;4259942;33;20409;-63
2022/06/14 08:26:54;;;;;;;0.50;0.50;;;17.00;99.90;;;;;;4260915;33;20192;-64
2022/06/14 08:29:30;;;;;;;0.30;0.30;;;16.90;99.90;;;;;;4250237;33;20120;-63
2022/06/14 08:32:05;;;;;;;0.40;0.40;;;17.10;99.90;;;;;;4253376;33;21393;-64
2022/06/14 08:34:39;;;;;;;0.20;0.20;;;17.00;99.90;;;;;;4245406;33;20095;-65
2022/06/14 08:37:33;;;;;;;0.40;0.40;;;17.10;99.90;;;;;;4266130;33;20181;-64
2022/06/14 08:40:22;;;;;;;0.40;0.40;;;17.00;99.90;;;;;;4254753;33;20869;-63
2022/06/14 08:42:53;;;;;;;0.20;0.20;;;17.10;99.90;;;;;;4254084;33;20084;-64
2022/06/14 08:45:38;;;;;;;0.35;0.35;;;17.50;99.60;;;;;;4261755;33;20124;-64
2022/06/14 08:48:33;;;;;;;0.40;0.40;;;17.60;98.30;;;;;;4236334;33;20536;-64
2022/06/14 08:51:32;;;;;;;0.80;0.50;;;17.80;98.20;;;;;;4252856;33;20724;-64
2022/06/14 08:54:26;;;;;;;0.62;0.62;;;17.90;98.20;;;;;;4264364;33;20160;-64
2022/06/14 08:57:04;;;;;;;0.50;0.50;;;17.80;98.10;;;;;;4252858;33;20702;-64
2022/06/14 08:59:59;;;;;;;0.40;0.40;;;17.40;98.60;;;;;;4246733;33;20116;-64
2022/06/14 09:02:44;;;;;;;0.20;0.20;;;17.00;99.70;;;;;;4243190;33;20112;-64
2022/06/14 09:05:34;;;;;;;0.30;0.30;;;16.60;99.90;;;;;;4235678;33;21002;-64
2022/06/14 09:08:14;;;;;;;0.30;0.30;;;16.50;99.90;;;;;;4251969;33;20215;-64
2022/06/14 09:10:52;;;;;;;0.43;0.43;;;16.50;99.90;;;;;;4250067;33;20136;-64
2022/06/14 09:13:57;;;;;;;0.57;0.57;;;16.50;99.90;;;;;;4254910;33;20179;-64
2022/06/14 09:16:44;;;;;;;0.47;0.40;;;16.40;99.90;;;;;;4251968;33;21105;-64
2022/06/14 09:19:28;;;;;;;0.30;0.30;;;16.40;99.90;;;;;;4244848;33;20177;-64
2022/06/14 09:22:08;;;;;;;0.55;0.55;;;16.60;99.90;;;;;;4260185;33;20101;-64
2022/06/14 09:24:58;;;;;;;0.37;0.37;;;16.60;99.90;;;;;;4260538;33;20270;-64
2022/06/14 09:27:52;;;;;;;0.30;0.30;;;16.60;99.70;;;;;;4265300;33;20665;-64
2022/06/14 09:30:39;;;;;;;1.02;0.57;;;16.90;98.80;;;;;;4249484;33;21206;-64
2022/06/14 09:33:20;;;;;;;0.65;0.65;;;17.00;98.80;;;;;;4249263;33;20116;-64
2022/06/14 09:36:10;;;;;;;0.30;0.30;;;17.10;97.40;;;;;;4257039;33;20167;-64
2022/06/14 09:39:04;;;;;;;0.40;0.40;;;17.10;97.20;;;;;;4261889;33;20812;-65
2022/06/14 09:41:57;;;;;;;0.50;0.50;;;17.20;97.60;;;;;;4266112;33;20100;-64
2022/06/14 09:44:49;;;;;;;0.60;0.60;;;17.30;98.40;;;;;;4265640;33;20245;-64
2022/06/14 09:47:40;;;;;;;0.30;0.30;;;17.60;99.20;;;;;;4262211;33;20247;-64
2022/06/14 09:50:40;;;;;;;0.35;0.35;;;17.60;99.00;;;;;;4259156;33;20343;-64
2022/06/14 09:53:49;;;;;;;0.45;0.40;;;18.00;97.90;;;;;;4257587;33;20244;-64
2022/06/14 09:56:25;;;;;;;0.98;0.68;;;18.30;96.20;;;;;;4248661;33;20252;-64
2022/06/14 09:59:09;;;;;;;0.30;0.30;;;18.30;96.80;;;;;;4264870;33;20224;-64
2022/06/14 10:01:57;;;;;;;0.20;0.20;;;18.20;96.10;;;;;;4254709;33;20809;-65
2022/06/14 10:04:56;;;;;;;0.20;0.20;;;17.90;96.20;;;;;;4243920;33;20201;-64
2022/06/14 10:08:00;;;;;;;0.20;0.20;;;17.80;96.60;;;;;;4242518;33;20253;-65
2022/06/14 10:11:06;;;;;;;2.15;0.50;;;17.50;97.40;;;;;;4271902;33;20179;-65
2022/06/14 10:13:45;;;;;;;0.60;0.40;;;17.70;97.30;;;;;;4262270;33;20721;-64
2022/06/14 10:16:51;;;;;;;0.30;0.30;;;17.70;96.60;;;;;;4256125;33;20828;-64
2022/06/14 10:19:47;;;;;;;0.50;0.50;;;17.70;96.70;;;;;;4245072;33;20432;-64
2022/06/14 10:22:29;;;;;;;0.40;0.40;;;17.70;97.00;;;;;;4254781;33;20505;-65
2022/06/14 10:25:10;;;;;;;14.82;0.70;;;17.50;96.20;;;;;;4268246;33;20540;-65
2022/06/14 10:28:25;;;;;;;0.40;0.40;;;17.50;96.50;;;;;;4275533;33;21649;-66
2022/06/14 10:31:06;;;;;;;0.20;0.20;;;17.30;96.70;;;;;;4253642;33;20097;-67
2022/06/14 10:33:51;;;;;;;0.65;0.65;;;17.30;96.90;;;;;;4259206;33;20383;-66
2022/06/14 10:36:41;;;;;;;0.28;0.28;;;17.50;97.60;;;;;;4269797;33;20104;-66
2022/06/14 10:39:20;;;;;;;0.30;0.30;;;17.60;97.60;;;;;;4268789;33;20108;-65
2022/06/14 10:42:00;;;;;;;0.37;0.37;;;17.70;96.90;;;;;;4269572;33;20096;-66
2022/06/14 10:44:41;;;;;;;0.50;0.50;;;17.80;96.90;;;;;;4263300;33;20721;-66
2022/06/14 10:47:11;;;;;;;0.52;0.52;;;18.00;97.30;;;;;;4260766;33;20891;-65
2022/06/14 10:50:17;;;;;;;0.20;0.20;;;18.20;96.20;;;;;;4262285;33;20552;-66
2022/06/14 10:53:15;;;;;;;0.30;0.30;;;18.30;96.00;;;;;;4253242;33;20128;-65
2022/06/14 10:56:03;;;;;;;0.40;0.40;;;18.10;95.70;;;;;;4249092;33;20603;-65
2022/06/14 10:58:47;;;;;;;0.70;0.45;;;17.90;95.30;;;;;;4252597;33;20250;-66
2022/06/14 11:01:39;;;;;;;0.40;0.40;;;17.80;95.70;;;;;;4257593;33;20360;-66
2022/06/14 11:04:24;;;;;;;0.40;0.40;;;17.80;96.00;;;;;;4256348;33;20734;-65
2022/06/14 11:07:09;;;;;;;1.25;1.02;;;17.70;95.20;;;;;;4269510;33;20092;-67
2022/06/14 11:09:50;;;;;;;0.30;0.30;;;17.70;95.70;;;;;;4275297;33;20091;-67
2022/06/14 11:12:30;;;;;;;0.40;0.40;;;18.10;95.30;;;;;;4278968;33;20080;-66
2022/06/14 11:15:03;;;;;;;0.20;0.20;;;18.50;95.00;;;;;;4266528;33;21787;-66
2022/06/14 11:17:59;;;;;;;2.53;1.17;;;18.80;93.80;;;;;;4269775;33;20160;-66
2022/06/14 11:20:34;;;;;;;0.30;0.30;;;18.80;93.80;;;;;;4270752;33;20155;-66
2022/06/14 11:23:12;;;;;;;0.30;0.30;;;18.70;93.60;;;;;;4270757;33;20128;-67
2022/06/14 11:26:06;;;;;;;0.20;0.20;;;18.70;94.10;;;;;;4280692;33;20158;-66
2022/06/14 11:28:43;;;;;;;0.30;0.30;;;18.60;94.40;;;;;;4267555;33;20108;-66
2022/06/14 11:31:24;;;;;;;0.45;0.45;;;18.50;94.20;;;;;;4262609;33;21524;-66
2022/06/14 11:34:06;;;;;;;0.30;0.30;;;18.60;94.40;;;;;;4260338;33;20506;-66
2022/06/14 11:36:46;;;;;;;0.20;0.20;;;18.80;94.70;;;;;;4279435;33;20080;-66
2022/06/14 11:39:26;;;;;;;0.20;0.20;;;19.00;94.10;;;;;;4270237;33;20672;-66
2022/06/14 11:41:53;;;;;;;0.30;0.30;;;19.40;93.70;;;;;;4265718;33;20120;-66
2022/06/14 11:44:47;;;;;;;0.40;0.40;;;20.00;93.80;;;;;;4267305;33;20873;-66
2022/06/14 11:47:46;;;;;;;2.92;1.15;;;20.00;92.80;;;;;;4266308;33;20152;-66
2022/06/14 11:50:21;;;;;;;0.30;0.30;;;19.60;92.50;;;;;;4274092;33;20525;-66
2022/06/14 11:53:20;;;;;;;0.30;0.30;;;19.40;92.70;;;;;;4275424;33;20096;-66
2022/06/14 11:55:49;;;;;;;0.20;0.20;;;19.20;93.20;;;;;;4274159;33;20303;-68
2022/06/14 11:58:39;;;;;;;0.40;0.40;;;19.30;93.20;;;;;;4271952;33;20116;-66
2022/06/14 12:01:31;;;;;;;0.30;0.30;;;19.40;92.60;;;;;;4268747;33;20448;-67
2022/06/14 12:04:15;;;;;;;0.25;0.25;;;20.30;92.50;;;;;;4271029;33;20524;-67
2022/06/14 12:06:59;;;;;;;0.40;0.40;;;21.00;91.40;;;;;;4276921;33;20225;-67
2022/06/14 12:10:01;;;;;;;0.20;0.20;;;21.00;90.10;;;;;;4282094;33;20175;-67
2022/06/14 12:12:52;;;;;;;0.40;0.30;;;20.60;90.60;;;;;;4281019;33;20091;-66
2022/06/14 12:15:43;;;;;;;0.30;0.30;;;20.40;90.80;;;;;;4274006;33;20401;-67
2022/06/14 12:18:13;;;;;;;0.32;0.32;;;21.30;90.10;;;;;;4278021;33;20152;-67
2022/06/14 12:20:46;;;;;;;0.10;0.10;;;22.20;87.60;;;;;;4281745;33;20072;-68
2022/06/14 12:23:35;;;;;;;0.88;0.62;;;22.80;86.90;;;;;;4279776;33;20174;-68
2022/06/14 12:26:43;;;;;;;0.10;0.10;;;23.30;84.10;;;;;;4282293;33;20602;-67
2022/06/14 12:29:10;;;;;;;0.30;0.30;;;24.20;80.30;;;;;;4263622;33;20259;-67
2022/06/14 12:31:47;;;;;;;0.17;0.17;;;24.50;78.70;;;;;;4273066;33;20579;-67
2022/06/14 12:34:22;;;;;;;0.10;0.10;;;24.50;75.80;;;;;;4269597;33;20160;-67
2022/06/14 12:37:24;;;;;;;1.45;0.55;;;24.70;76.20;;;;;;4277056;33;20148;-67
2022/06/14 12:40:06;;;;;;;0.55;0.55;;;24.70;74.10;;;;;;4273875;33;20080;-67
2022/06/14 12:42:53;;;;;;;0.35;0.20;;;23.80;75.50;;;;;;4268051;33;20349;-67
2022/06/14 12:45:25;;;;;;;0.15;0.15;;;23.10;77.40;;;;;;4273174;33;20172;-67
2022/06/14 12:48:14;;;;;;;0.20;0.20;;;22.70;79.20;;;;;;4271057;33;20192;-67
2022/06/14 12:50:44;;;;;;;0.13;0.13;;;22.20;78.60;;;;;;4284315;33;20425;-67
2022/06/14 12:53:49;;;;;;;0.10;0.10;;;22.30;80.30;;;;;;4284050;33;20172;-67
2022/06/14 12:56:47;;;;;;;0.20;0.20;;;22.60;80.60;;;;;;4275474;33;20084;-67
2022/06/14 12:59:39;;;;;;;2.72;0.73;;;22.30;80.20;;;;;;4279505;33;20169;-67
2022/06/14 13:02:20;;;;;;;0.20;0.20;;;22.30;79.50;;;;;;4265627;33;20682;-67
2022/06/14 13:04:53;;;;;;;1.20;0.73;;;22.80;79.50;;;;;;4282397;33;20068;-67
2022/06/14 13:07:46;;;;;;;0.28;0.17;;;22.80;78.30;;;;;;4287841;33;20611;-67
2022/06/14 13:10:32;;;;;;;0.20;0.20;;;23.30;77.60;;;;;;4286301;33;20492;-67
2022/06/14 13:13:28;;;;;;;0.43;0.43;;;24.10;74.80;;;;;;4283989;33;20422;-67
2022/06/14 13:16:04;;;;;;;2.20;0.57;;;24.20;74.50;;;;;;4279315;33;20468;-67
2022/06/14 13:18:51;;;;;;;0.05;0.05;;;24.70;72.80;;;;;;4281850;33;20111;-67
2022/06/14 13:21:56;;;;;;;0.15;0.10;;;25.60;71.80;;;;;;4287991;33;20128;-67
2022/06/14 13:24:42;;;;;;;4.47;1.83;;;26.50;70.20;;;;;;4286159;33;20209;-67
2022/06/14 13:27:30;;;;;;;0.00;0.00;;;25.80;68.50;;;;;;4288203;33;20125;-67
2022/06/14 13:30:19;;;;;;;0.10;0.10;;;26.20;68.40;;;;;;4274245;33;20709;-67
2022/06/14 13:33:13;;;;;;;0.10;0.10;;;26.60;68.40;;;;;;4280907;33;20152;-67
2022/06/14 13:35:45;;;;;;;4.07;1.08;;;26.40;67.30;;;;;;4286919;33;20096;-67
2022/06/14 13:38:32;;;;;;;0.22;0.22;;;26.80;67.20;;;;;;4293400;33;20101;-67
2022/06/14 13:41:20;;;;;;;0.10;0.10;;;27.20;66.60;;;;;;4288162;33;20108;-67
2022/06/14 13:44:15;;;;;;;0.00;0.00;;;27.70;64.00;;;;;;4287155;33;20419;-67
2022/06/14 13:46:47;;;;;;;0.35;0.35;;;27.90;63.20;;;;;;4281679;33;20096;-67
2022/06/14 13:49:18;;;;;;;0.00;0.00;;;27.20;64.00;;;;;;4287563;33;20753;-67
2022/06/14 13:51:51;;;;;;;0.00;0.00;;;27.20;65.30;;;;;;4295023;33;20081;-67
2022/06/14 13:54:41;;;;;;;0.10;0.10;;;27.60;62.70;;;;;;4293857;33;20068;-67